sensor_id;sensor_type;location;lat;lon;timestamp;temperature;humidity
5870;DHT22;2961;47.702;9.410;2023-07-31T00:01:10;13.70;99.90
5870;DHT22;2961;47.702;9.410;2023-07-31T00:03:37;13.70;99.90
5870;DHT22;2961;47.702;9.410;2023-07-31T00:06:05;13.70;99.90
5870;DHT22;2961;47.702;9.410;2023-07-31T00:08:31;13.60;99.90
5870;DHT22;2961;47.702;9.410;2023-07-31T00:10:58;13.40;99.90
5870;DHT22;2961;47.702;9.410;2023-07-31T00:13:25;13.40;99.90
5870;DHT22;2961;47.702;9.410;2023-07-31T00:15:52;13.30;99.90
5870;DHT22;2961;47.702;9.410;2023-07-31T00:18:19;13.20;99.90
5870;DHT22;2961;47.702;9.410;2023-07-31T00:20:45;13.10;99.90
5870;DHT22;2961;47.702;9.410;2023-07-31T00:23:13;13.10;99.90
5870;DHT22;2961;47.702;9.410;2023-07-31T00:25:41;13.20;99.90
5870;DHT22;2961;47.702;9.410;2023-07-31T00:28:08;13.20;99.90
5870;DHT22;2961;47.702;9.410;2023-07-31T00:30:34;13.10;99.90
5870;DHT22;2961;47.702;9.410;2023-07-31T00:33:01;13.00;99.90
5870;DHT22;2961;47.702;9.410;2023-07-31T00:35:28;13.00;99.90
5870;DHT22;2961;47.702;9.410;2023-07-31T00:37:57;13.00;99.90
5870;DHT22;2961;47.702;9.410;2023-07-31T00:40:25;13.00;99.90
5870;DHT22;2961;47.702;9.410;2023-07-31T00:42:52;12.90;99.90
5870;DHT22;2961;47.702;9.410;2023-07-31T00:45:19;12.90;99.90
5870;DHT22;2961;47.702;9.410;2023-07-31T00:47:46;12.80;99.90
5870;DHT22;2961;47.702;9.410;2023-07-31T00:50:13;12.80;99.90
5870;DHT22;2961;47.702;9.410;2023-07-31T00:52:41;12.80;99.90
5870;DHT22;2961;47.702;9.410;2023-07-31T00:55:08;12.80;99.90
5870;DHT22;2961;47.702;9.410;2023-07-31T00:57:36;12.70;99.90
5870;DHT22;2961;47.702;9.410;2023-07-31T01:00:05;12.70;99.90
5870;DHT22;2961;47.702;9.410;2023-07-31T01:02:33;12.80;99.90
5870;DHT22;2961;47.702;9.410;2023-07-31T01:05:00;12.90;99.90
5870;DHT22;2961;47.702;9.410;2023-07-31T01:07:34;12.90;99.90
5870;DHT22;2961;47.702;9.410;2023-07-31T01:10:07;13.10;99.90
5870;DHT22;2961;47.702;9.410;2023-07-31T01:12:38;13.20;99.90
5870;DHT22;2961;47.702;9.410;2023-07-31T01:15:06;13.20;99.90
5870;DHT22;2961;47.702;9.410;2023-07-31T01:17:36;13.20;99.90
5870;DHT22;2961;47.702;9.410;2023-07-31T01:20:05;13.10;99.90
5870;DHT22;2961;47.702;9.410;2023-07-31T01:22:54;13.10;99.90
5870;DHT22;2961;47.702;9.410;2023-07-31T01:28:11;12.90;99.90
5870;DHT22;2961;47.702;9.410;2023-07-31T01:30:43;12.70;99.90
5870;DHT22;2961;47.702;9.410;2023-07-31T01:33:10;12.70;99.90
5870;DHT22;2961;47.702;9.410;2023-07-31T01:35:38;12.70;99.90
5870;DHT22;2961;47.702;9.410;2023-07-31T01:38:05;12.70;99.90
5870;DHT22;2961;47.702;9.410;2023-07-31T01:40:32;12.80;99.90
5870;DHT22;2961;47.702;9.410;2023-07-31T01:42:58;12.70;99.90
5870;DHT22;2961;47.702;9.410;2023-07-31T01:45:27;12.70;99.90
5870;DHT22;2961;47.702;9.410;2023-07-31T01:47:53;12.70;99.90
5870;DHT22;2961;47.702;9.410;2023-07-31T01:50:20;12.70;99.90
5870;DHT22;2961;47.702;9.410;2023-07-31T01:52:47;12.80;99.90
5870;DHT22;2961;47.702;9.410;2023-07-31T01:55:14;12.80;99.90
5870;DHT22;2961;47.702;9.410;2023-07-31T01:57:40;12.70;99.90
5870;DHT22;2961;47.702;9.410;2023-07-31T02:00:08;12.80;99.90
5870;DHT22;2961;47.702;9.410;2023-07-31T02:02:36;12.80;99.90
5870;DHT22;2961;47.702;9.410;2023-07-31T02:05:03;12.70;99.90
5870;DHT22;2961;47.702;9.410;2023-07-31T02:07:30;12.60;99.90
5870;DHT22;2961;47.702;9.410;2023-07-31T02:09:56;12.60;99.90
5870;DHT22;2961;47.702;9.410;2023-07-31T02:12:23;12.50;99.90
5870;DHT22;2961;47.702;9.410;2023-07-31T02:14:50;12.50;99.90
5870;DHT22;2961;47.702;9.410;2023-07-31T02:17:17;12.50;99.90
5870;DHT22;2961;47.702;9.410;2023-07-31T02:19:45;12.50;99.90
5870;DHT22;2961;47.702;9.410;2023-07-31T02:22:12;12.50;99.90
5870;DHT22;2961;47.702;9.410;2023-07-31T02:24:38;12.60;99.90
5870;DHT22;2961;47.702;9.410;2023-07-31T02:27:06;12.60;99.90
5870;DHT22;2961;47.702;9.410;2023-07-31T02:29:32;12.60;99.90
5870;DHT22;2961;47.702;9.410;2023-07-31T02:31:59;12.60;99.90
5870;DHT22;2961;47.702;9.410;2023-07-31T02:34:26;12.60;99.90
5870;DHT22;2961;47.702;9.410;2023-07-31T02:36:54;12.60;99.90
5870;DHT22;2961;47.702;9.410;2023-07-31T02:39:21;12.50;99.90
5870;DHT22;2961;47.702;9.410;2023-07-31T02:41:48;12.50;99.90
5870;DHT22;2961;47.702;9.410;2023-07-31T02:44:14;12.50;99.90
5870;DHT22;2961;47.702;9.410;2023-07-31T02:46:41;12.40;99.90
5870;DHT22;2961;47.702;9.410;2023-07-31T02:49:08;12.30;99.90
5870;DHT22;2961;47.702;9.410;2023-07-31T02:51:35;12.20;99.90
5870;DHT22;2961;47.702;9.410;2023-07-31T02:54:03;12.20;99.90
5870;DHT22;2961;47.702;9.410;2023-07-31T02:56:30;12.20;99.90
5870;DHT22;2961;47.702;9.410;2023-07-31T02:58:56;12.10;99.90
5870;DHT22;2961;47.702;9.410;2023-07-31T03:01:23;12.10;99.90
5870;DHT22;2961;47.702;9.410;2023-07-31T03:03:50;12.10;99.90
5870;DHT22;2961;47.702;9.410;2023-07-31T03:06:17;12.00;99.90
5870;DHT22;2961;47.702;9.410;2023-07-31T03:08:44;11.90;99.90
5870;DHT22;2961;47.702;9.410;2023-07-31T03:11:12;11.90;99.90
5870;DHT22;2961;47.702;9.410;2023-07-31T03:13:38;11.80;99.90
5870;DHT22;2961;47.702;9.410;2023-07-31T03:16:05;11.80;99.90
5870;DHT22;2961;47.702;9.410;2023-07-31T03:18:32;11.80;99.90
5870;DHT22;2961;47.702;9.410;2023-07-31T03:20:59;11.80;99.90
5870;DHT22;2961;47.702;9.410;2023-07-31T03:23:25;11.80;99.90
5870;DHT22;2961;47.702;9.410;2023-07-31T03:25:56;11.90;99.90
5870;DHT22;2961;47.702;9.410;2023-07-31T03:28:25;11.80;99.90
5870;DHT22;2961;47.702;9.410;2023-07-31T03:30:52;11.80;99.90
5870;DHT22;2961;47.702;9.410;2023-07-31T03:33:19;11.80;99.90
5870;DHT22;2961;47.702;9.410;2023-07-31T03:35:45;11.70;99.90
5870;DHT22;2961;47.702;9.410;2023-07-31T03:38:12;11.60;99.90
5870;DHT22;2961;47.702;9.410;2023-07-31T03:40:39;11.70;99.90
5870;DHT22;2961;47.702;9.410;2023-07-31T03:43:06;11.70;99.90
5870;DHT22;2961;47.702;9.410;2023-07-31T03:45:34;11.80;99.90
5870;DHT22;2961;47.702;9.410;2023-07-31T03:48:01;11.80;99.90
5870;DHT22;2961;47.702;9.410;2023-07-31T03:50:28;11.70;99.90
5870;DHT22;2961;47.702;9.410;2023-07-31T03:52:54;11.60;99.90
5870;DHT22;2961;47.702;9.410;2023-07-31T03:55:21;11.60;99.90
5870;DHT22;2961;47.702;9.410;2023-07-31T03:57:48;11.50;99.90
5870;DHT22;2961;47.702;9.410;2023-07-31T04:00:15;11.40;99.90
5870;DHT22;2961;47.702;9.410;2023-07-31T04:02:43;11.40;99.90
5870;DHT22;2961;47.702;9.410;2023-07-31T04:05:10;11.50;99.90
5870;DHT22;2961;47.702;9.410;2023-07-31T04:07:37;11.50;99.90
5870;DHT22;2961;47.702;9.410;2023-07-31T04:10:04;11.60;99.90
5870;DHT22;2961;47.702;9.410;2023-07-31T04:12:31;11.50;99.90
5870;DHT22;2961;47.702;9.410;2023-07-31T04:14:58;11.50;99.90
5870;DHT22;2961;47.702;9.410;2023-07-31T04:17:25;11.50;99.90
5870;DHT22;2961;47.702;9.410;2023-07-31T04:19:53;11.60;99.90
5870;DHT22;2961;47.702;9.410;2023-07-31T04:22:20;11.70;99.90
5870;DHT22;2961;47.702;9.410;2023-07-31T04:24:47;11.80;99.90
5870;DHT22;2961;47.702;9.410;2023-07-31T04:27:13;11.80;99.90
5870;DHT22;2961;47.702;9.410;2023-07-31T04:29:40;11.80;99.90
5870;DHT22;2961;47.702;9.410;2023-07-31T04:32:08;11.80;99.90
5870;DHT22;2961;47.702;9.410;2023-07-31T04:34:34;11.90;99.90
5870;DHT22;2961;47.702;9.410;2023-07-31T04:37:03;11.80;99.90
5870;DHT22;2961;47.702;9.410;2023-07-31T04:39:30;11.90;99.90
5870;DHT22;2961;47.702;9.410;2023-07-31T04:41:56;11.90;99.90
5870;DHT22;2961;47.702;9.410;2023-07-31T04:44:23;12.00;99.90
5870;DHT22;2961;47.702;9.410;2023-07-31T04:47:08;12.20;99.90
5870;DHT22;2961;47.702;9.410;2023-07-31T04:49:35;12.40;99.90
5870;DHT22;2961;47.702;9.410;2023-07-31T04:52:04;12.60;99.90
5870;DHT22;2961;47.702;9.410;2023-07-31T04:54:31;12.80;99.90
5870;DHT22;2961;47.702;9.410;2023-07-31T04:56:58;12.90;99.90
5870;DHT22;2961;47.702;9.410;2023-07-31T04:59:24;13.10;99.90
5870;DHT22;2961;47.702;9.410;2023-07-31T05:01:51;13.30;99.90
5870;DHT22;2961;47.702;9.410;2023-07-31T05:04:18;13.40;99.90
5870;DHT22;2961;47.702;9.410;2023-07-31T05:06:45;13.60;99.90
5870;DHT22;2961;47.702;9.410;2023-07-31T05:09:13;13.80;99.90
5870;DHT22;2961;47.702;9.410;2023-07-31T05:11:39;14.00;99.90
5870;DHT22;2961;47.702;9.410;2023-07-31T05:14:08;14.20;99.90
5870;DHT22;2961;47.702;9.410;2023-07-31T05:16:35;14.40;99.90
5870;DHT22;2961;47.702;9.410;2023-07-31T05:19:01;14.70;99.90
5870;DHT22;2961;47.702;9.410;2023-07-31T05:21:28;14.70;99.90
5870;DHT22;2961;47.702;9.410;2023-07-31T05:23:55;14.70;99.90
5870;DHT22;2961;47.702;9.410;2023-07-31T05:26:23;15.00;99.90
5870;DHT22;2961;47.702;9.410;2023-07-31T05:28:50;15.30;99.90
5870;DHT22;2961;47.702;9.410;2023-07-31T05:31:16;15.60;99.90
5870;DHT22;2961;47.702;9.410;2023-07-31T05:33:42;16.00;99.90
5870;DHT22;2961;47.702;9.410;2023-07-31T05:36:09;16.50;99.90
5870;DHT22;2961;47.702;9.410;2023-07-31T05:38:36;17.10;99.90
5870;DHT22;2961;47.702;9.410;2023-07-31T05:41:03;17.40;99.90
5870;DHT22;2961;47.702;9.410;2023-07-31T05:43:31;17.70;99.90
5870;DHT22;2961;47.702;9.410;2023-07-31T05:45:58;17.90;99.90
5870;DHT22;2961;47.702;9.410;2023-07-31T05:48:25;18.00;99.90
5870;DHT22;2961;47.702;9.410;2023-07-31T05:50:51;18.00;99.90
5870;DHT22;2961;47.702;9.410;2023-07-31T05:53:18;18.00;99.90
5870;DHT22;2961;47.702;9.410;2023-07-31T05:55:45;17.90;99.90
5870;DHT22;2961;47.702;9.410;2023-07-31T05:58:12;17.80;99.90
5870;DHT22;2961;47.702;9.410;2023-07-31T06:00:40;17.70;99.90
5870;DHT22;2961;47.702;9.410;2023-07-31T06:03:07;17.50;99.90
5870;DHT22;2961;47.702;9.410;2023-07-31T06:05:34;17.30;99.90
5870;DHT22;2961;47.702;9.410;2023-07-31T06:08:00;17.20;99.90
5870;DHT22;2961;47.702;9.410;2023-07-31T06:10:27;17.20;99.90
5870;DHT22;2961;47.702;9.410;2023-07-31T06:12:54;17.10;99.90
5870;DHT22;2961;47.702;9.410;2023-07-31T06:15:22;17.30;99.90
5870;DHT22;2961;47.702;9.410;2023-07-31T06:17:50;17.30;99.90
5870;DHT22;2961;47.702;9.410;2023-07-31T06:20:17;17.40;99.90
5870;DHT22;2961;47.702;9.410;2023-07-31T06:22:50;17.50;99.90
5870;DHT22;2961;47.702;9.410;2023-07-31T06:25:17;17.50;99.90
5870;DHT22;2961;47.702;9.410;2023-07-31T06:27:44;17.60;99.90
5870;DHT22;2961;47.702;9.410;2023-07-31T06:30:11;17.70;99.90
5870;DHT22;2961;47.702;9.410;2023-07-31T06:32:38;18.10;99.90
5870;DHT22;2961;47.702;9.410;2023-07-31T06:35:07;19.00;99.90
5870;DHT22;2961;47.702;9.410;2023-07-31T06:37:34;20.20;99.90
5870;DHT22;2961;47.702;9.410;2023-07-31T06:40:01;21.30;99.90
5870;DHT22;2961;47.702;9.410;2023-07-31T06:42:28;21.90;99.90
5870;DHT22;2961;47.702;9.410;2023-07-31T06:44:55;21.90;99.90
5870;DHT22;2961;47.702;9.410;2023-07-31T06:47:21;21.30;99.90
5870;DHT22;2961;47.702;9.410;2023-07-31T06:49:48;21.10;99.90
5870;DHT22;2961;47.702;9.410;2023-07-31T06:52:16;21.30;99.90
5870;DHT22;2961;47.702;9.410;2023-07-31T06:54:43;21.50;99.90
5870;DHT22;2961;47.702;9.410;2023-07-31T06:57:10;21.70;99.90
5870;DHT22;2961;47.702;9.410;2023-07-31T06:59:36;22.00;99.90
5870;DHT22;2961;47.702;9.410;2023-07-31T07:02:04;21.90;99.90
5870;DHT22;2961;47.702;9.410;2023-07-31T07:04:31;22.00;99.90
5870;DHT22;2961;47.702;9.410;2023-07-31T07:06:58;21.80;99.90
5870;DHT22;2961;47.702;9.410;2023-07-31T07:09:26;21.40;99.90
5870;DHT22;2961;47.702;9.410;2023-07-31T07:11:52;21.00;99.90
5870;DHT22;2961;47.702;9.410;2023-07-31T07:14:19;20.80;99.90
5870;DHT22;2961;47.702;9.410;2023-07-31T07:16:50;20.50;99.90
5870;DHT22;2961;47.702;9.410;2023-07-31T07:19:17;20.20;99.90
5870;DHT22;2961;47.702;9.410;2023-07-31T07:21:44;19.90;99.90
5870;DHT22;2961;47.702;9.410;2023-07-31T07:24:11;19.70;99.90
5870;DHT22;2961;47.702;9.410;2023-07-31T07:26:39;19.80;99.90
5870;DHT22;2961;47.702;9.410;2023-07-31T07:29:05;19.80;99.90
5870;DHT22;2961;47.702;9.410;2023-07-31T07:31:33;20.00;99.90
5870;DHT22;2961;47.702;9.410;2023-07-31T07:34:00;20.30;99.90
5870;DHT22;2961;47.702;9.410;2023-07-31T07:36:28;20.70;99.90
5870;DHT22;2961;47.702;9.410;2023-07-31T07:38:54;20.80;99.90
5870;DHT22;2961;47.702;9.410;2023-07-31T07:41:21;20.70;99.90
5870;DHT22;2961;47.702;9.410;2023-07-31T07:43:49;20.60;99.90
5870;DHT22;2961;47.702;9.410;2023-07-31T07:46:17;20.40;99.90
5870;DHT22;2961;47.702;9.410;2023-07-31T07:48:43;20.40;99.90
5870;DHT22;2961;47.702;9.410;2023-07-31T07:51:10;20.40;99.90
5870;DHT22;2961;47.702;9.410;2023-07-31T07:53:37;20.50;99.90
5870;DHT22;2961;47.702;9.410;2023-07-31T07:56:04;20.60;99.90
5870;DHT22;2961;47.702;9.410;2023-07-31T07:58:30;20.50;99.90
5870;DHT22;2961;47.702;9.410;2023-07-31T08:00:59;20.30;99.90
5870;DHT22;2961;47.702;9.410;2023-07-31T08:03:25;20.20;99.90
5870;DHT22;2961;47.702;9.410;2023-07-31T08:05:52;20.00;99.90
5870;DHT22;2961;47.702;9.410;2023-07-31T08:08:19;20.00;99.90
5870;DHT22;2961;47.702;9.410;2023-07-31T08:10:46;20.20;99.90
5870;DHT22;2961;47.702;9.410;2023-07-31T08:13:12;20.50;99.90
5870;DHT22;2961;47.702;9.410;2023-07-31T08:15:41;20.70;99.90
5870;DHT22;2961;47.702;9.410;2023-07-31T08:18:09;21.20;99.90
5870;DHT22;2961;47.702;9.410;2023-07-31T08:20:37;21.60;99.90
5870;DHT22;2961;47.702;9.410;2023-07-31T08:23:03;21.80;99.90
5870;DHT22;2961;47.702;9.410;2023-07-31T08:25:30;22.00;99.90
5870;DHT22;2961;47.702;9.410;2023-07-31T08:28:00;22.30;99.90
5870;DHT22;2961;47.702;9.410;2023-07-31T08:30:27;22.70;99.90
5870;DHT22;2961;47.702;9.410;2023-07-31T08:32:54;23.10;99.90
5870;DHT22;2961;47.702;9.410;2023-07-31T08:35:23;23.60;99.70
5870;DHT22;2961;47.702;9.410;2023-07-31T08:37:50;24.10;97.80
5870;DHT22;2961;47.702;9.410;2023-07-31T08:40:17;24.40;98.00
5870;DHT22;2961;47.702;9.410;2023-07-31T08:42:44;24.30;97.90
5870;DHT22;2961;47.702;9.410;2023-07-31T08:45:14;24.80;97.30
5870;DHT22;2961;47.702;9.410;2023-07-31T08:47:44;25.30;95.90
5870;DHT22;2961;47.702;9.410;2023-07-31T08:50:12;26.00;95.00
5870;DHT22;2961;47.702;9.410;2023-07-31T08:52:40;26.10;92.00
5870;DHT22;2961;47.702;9.410;2023-07-31T08:55:08;25.90;92.00
5870;DHT22;2961;47.702;9.410;2023-07-31T08:57:36;25.70;92.10
5870;DHT22;2961;47.702;9.410;2023-07-31T09:00:05;25.10;91.20
5870;DHT22;2961;47.702;9.410;2023-07-31T09:02:37;24.80;92.90
5870;DHT22;2961;47.702;9.410;2023-07-31T09:05:05;24.60;95.30
5870;DHT22;2961;47.702;9.410;2023-07-31T09:07:34;24.60;93.20
5870;DHT22;2961;47.702;9.410;2023-07-31T09:10:02;24.30;93.40
5870;DHT22;2961;47.702;9.410;2023-07-31T09:12:30;24.40;93.40
5870;DHT22;2961;47.702;9.410;2023-07-31T09:14:57;24.40;93.60
5870;DHT22;2961;47.702;9.410;2023-07-31T09:17:31;24.20;93.90
5870;DHT22;2961;47.702;9.410;2023-07-31T09:19:58;24.00;92.50
5870;DHT22;2961;47.702;9.410;2023-07-31T09:22:31;23.90;92.70
5870;DHT22;2961;47.702;9.410;2023-07-31T09:25:14;23.90;93.80
5870;DHT22;2961;47.702;9.410;2023-07-31T09:27:48;24.00;91.90
5870;DHT22;2961;47.702;9.410;2023-07-31T09:30:16;24.40;92.60
5870;DHT22;2961;47.702;9.410;2023-07-31T09:32:43;24.90;93.10
5870;DHT22;2961;47.702;9.410;2023-07-31T09:35:18;25.10;92.00
5870;DHT22;2961;47.702;9.410;2023-07-31T09:37:49;25.10;91.10
5870;DHT22;2961;47.702;9.410;2023-07-31T09:40:27;25.20;89.20
5870;DHT22;2961;47.702;9.410;2023-07-31T09:42:56;25.30;92.40
5870;DHT22;2961;47.702;9.410;2023-07-31T09:45:24;25.70;89.40
5870;DHT22;2961;47.702;9.410;2023-07-31T09:47:51;26.10;87.50
5870;DHT22;2961;47.702;9.410;2023-07-31T09:52:45;26.90;86.60
5870;DHT22;2961;47.702;9.410;2023-07-31T09:55:12;27.00;85.10
5870;DHT22;2961;47.702;9.410;2023-07-31T09:57:42;27.10;82.60
5870;DHT22;2961;47.702;9.410;2023-07-31T10:00:10;27.20;82.10
5870;DHT22;2961;47.702;9.410;2023-07-31T10:02:37;27.50;83.60
5870;DHT22;2961;47.702;9.410;2023-07-31T10:05:06;27.30;83.60
5870;DHT22;2961;47.702;9.410;2023-07-31T10:07:37;27.30;82.60
5870;DHT22;2961;47.702;9.410;2023-07-31T10:10:07;27.10;80.20
5870;DHT22;2961;47.702;9.410;2023-07-31T10:12:34;26.50;80.40
5870;DHT22;2961;47.702;9.410;2023-07-31T10:15:04;26.10;82.20
5870;DHT22;2961;47.702;9.410;2023-07-31T10:17:31;25.40;85.60
5870;DHT22;2961;47.702;9.410;2023-07-31T10:19:59;25.00;85.90
5870;DHT22;2961;47.702;9.410;2023-07-31T10:22:27;24.90;86.70
5870;DHT22;2961;47.702;9.410;2023-07-31T10:24:55;24.50;89.00
5870;DHT22;2961;47.702;9.410;2023-07-31T10:27:24;24.10;90.30
5870;DHT22;2961;47.702;9.410;2023-07-31T10:29:52;24.00;90.50
5870;DHT22;2961;47.702;9.410;2023-07-31T10:32:35;23.90;90.70
5870;DHT22;2961;47.702;9.410;2023-07-31T10:35:04;23.70;92.00
5870;DHT22;2961;47.702;9.410;2023-07-31T10:37:37;23.50;92.20
5870;DHT22;2961;47.702;9.410;2023-07-31T10:40:06;23.30;92.30
5870;DHT22;2961;47.702;9.410;2023-07-31T10:42:34;23.30;91.70
5870;DHT22;2961;47.702;9.410;2023-07-31T10:45:03;23.30;92.80
5870;DHT22;2961;47.702;9.410;2023-07-31T10:47:30;23.10;91.90
5870;DHT22;2961;47.702;9.410;2023-07-31T10:50:29;23.20;91.00
5870;DHT22;2961;47.702;9.410;2023-07-31T10:52:58;23.30;91.70
5870;DHT22;2961;47.702;9.410;2023-07-31T10:55:28;23.40;92.50
5870;DHT22;2961;47.702;9.410;2023-07-31T10:57:56;23.60;93.00
5870;DHT22;2961;47.702;9.410;2023-07-31T11:00:25;23.70;91.80
5870;DHT22;2961;47.702;9.410;2023-07-31T11:03:03;23.80;92.90
5870;DHT22;2961;47.702;9.410;2023-07-31T11:05:46;23.80;92.00
5870;DHT22;2961;47.702;9.410;2023-07-31T11:08:14;23.60;92.30
5870;DHT22;2961;47.702;9.410;2023-07-31T11:10:42;23.60;91.80
5870;DHT22;2961;47.702;9.410;2023-07-31T11:13:10;23.60;91.60
5870;DHT22;2961;47.702;9.410;2023-07-31T11:15:37;23.50;91.70
5870;DHT22;2961;47.702;9.410;2023-07-31T11:18:04;23.60;93.10
5870;DHT22;2961;47.702;9.410;2023-07-31T11:20:31;23.70;94.70
5870;DHT22;2961;47.702;9.410;2023-07-31T11:23:01;23.70;93.50
5870;DHT22;2961;47.702;9.410;2023-07-31T11:25:29;23.60;91.90
5870;DHT22;2961;47.702;9.410;2023-07-31T11:27:57;23.60;93.60
5870;DHT22;2961;47.702;9.410;2023-07-31T11:30:23;23.60;93.20
5870;DHT22;2961;47.702;9.410;2023-07-31T11:32:50;23.70;93.30
5870;DHT22;2961;47.702;9.410;2023-07-31T11:35:17;23.80;93.00
5870;DHT22;2961;47.702;9.410;2023-07-31T11:37:44;24.00;93.20
5870;DHT22;2961;47.702;9.410;2023-07-31T11:40:13;24.20;92.00
5870;DHT22;2961;47.702;9.410;2023-07-31T11:42:41;24.30;92.20
5870;DHT22;2961;47.702;9.410;2023-07-31T11:45:09;24.20;92.80
5870;DHT22;2961;47.702;9.410;2023-07-31T11:47:37;24.20;92.30
5870;DHT22;2961;47.702;9.410;2023-07-31T11:50:05;24.10;93.30
5870;DHT22;2961;47.702;9.410;2023-07-31T11:52:38;24.20;93.00
5870;DHT22;2961;47.702;9.410;2023-07-31T11:55:07;24.30;92.40
5870;DHT22;2961;47.702;9.410;2023-07-31T11:57:37;24.40;92.40
5870;DHT22;2961;47.702;9.410;2023-07-31T12:00:13;24.20;90.30
5870;DHT22;2961;47.702;9.410;2023-07-31T12:02:41;24.00;91.20
5870;DHT22;2961;47.702;9.410;2023-07-31T12:05:10;23.80;91.70
5870;DHT22;2961;47.702;9.410;2023-07-31T12:07:45;23.80;91.20
5870;DHT22;2961;47.702;9.410;2023-07-31T12:10:23;23.90;91.30
5870;DHT22;2961;47.702;9.410;2023-07-31T12:12:58;24.10;90.00
5870;DHT22;2961;47.702;9.410;2023-07-31T12:15:30;24.40;91.30
5870;DHT22;2961;47.702;9.410;2023-07-31T12:17:57;24.70;90.40
5870;DHT22;2961;47.702;9.410;2023-07-31T12:20:24;25.10;90.70
5870;DHT22;2961;47.702;9.410;2023-07-31T12:22:51;25.20;86.80
5870;DHT22;2961;47.702;9.410;2023-07-31T12:25:18;25.30;90.00
5870;DHT22;2961;47.702;9.410;2023-07-31T12:27:44;25.20;90.90
5870;DHT22;2961;47.702;9.410;2023-07-31T12:33:06;24.90;89.00
5870;DHT22;2961;47.702;9.410;2023-07-31T12:35:46;24.70;87.10
5870;DHT22;2961;47.702;9.410;2023-07-31T12:38:13;24.50;87.70
5870;DHT22;2961;47.702;9.410;2023-07-31T12:40:40;24.60;86.10
5870;DHT22;2961;47.702;9.410;2023-07-31T12:43:08;24.70;88.40
5870;DHT22;2961;47.702;9.410;2023-07-31T12:45:35;24.90;86.60
5870;DHT22;2961;47.702;9.410;2023-07-31T12:48:02;25.00;87.70
5870;DHT22;2961;47.702;9.410;2023-07-31T12:50:30;25.20;88.20
5870;DHT22;2961;47.702;9.410;2023-07-31T12:52:57;25.30;88.40
5870;DHT22;2961;47.702;9.410;2023-07-31T12:55:24;25.10;84.60
5870;DHT22;2961;47.702;9.410;2023-07-31T12:57:51;25.00;88.40
5870;DHT22;2961;47.702;9.410;2023-07-31T13:00:18;24.90;86.30
5870;DHT22;2961;47.702;9.410;2023-07-31T13:02:45;24.90;87.00
5870;DHT22;2961;47.702;9.410;2023-07-31T13:05:11;24.80;83.90
5870;DHT22;2961;47.702;9.410;2023-07-31T13:07:40;24.80;84.10
5870;DHT22;2961;47.702;9.410;2023-07-31T13:10:07;24.70;82.80
5870;DHT22;2961;47.702;9.410;2023-07-31T13:12:34;24.80;86.80
5870;DHT22;2961;47.702;9.410;2023-07-31T13:15:01;25.00;87.90
5870;DHT22;2961;47.702;9.410;2023-07-31T13:17:28;25.00;82.70
5870;DHT22;2961;47.702;9.410;2023-07-31T13:19:55;24.90;85.20
5870;DHT22;2961;47.702;9.410;2023-07-31T13:22:21;24.90;85.60
5870;DHT22;2961;47.702;9.410;2023-07-31T13:24:50;25.00;88.30
5870;DHT22;2961;47.702;9.410;2023-07-31T13:27:16;24.90;85.10
5870;DHT22;2961;47.702;9.410;2023-07-31T13:29:45;24.90;84.50
5870;DHT22;2961;47.702;9.410;2023-07-31T13:32:11;25.00;84.40
5870;DHT22;2961;47.702;9.410;2023-07-31T13:34:38;25.10;85.30
5870;DHT22;2961;47.702;9.410;2023-07-31T13:37:05;25.10;80.80
5870;DHT22;2961;47.702;9.410;2023-07-31T13:39:32;25.20;84.40
5870;DHT22;2961;47.702;9.410;2023-07-31T13:42:01;25.10;80.80
5870;DHT22;2961;47.702;9.410;2023-07-31T13:44:28;25.30;82.40
5870;DHT22;2961;47.702;9.410;2023-07-31T13:46:55;25.30;85.20
5870;DHT22;2961;47.702;9.410;2023-07-31T13:49:22;25.30;82.70
5870;DHT22;2961;47.702;9.410;2023-07-31T13:51:49;25.50;82.40
5870;DHT22;2961;47.702;9.410;2023-07-31T13:54:16;25.70;81.10
5870;DHT22;2961;47.702;9.410;2023-07-31T13:56:44;25.80;82.10
5870;DHT22;2961;47.702;9.410;2023-07-31T13:59:12;26.00;81.90
5870;DHT22;2961;47.702;9.410;2023-07-31T14:01:40;26.10;81.40
5870;DHT22;2961;47.702;9.410;2023-07-31T14:04:07;26.30;79.30
5870;DHT22;2961;47.702;9.410;2023-07-31T14:06:34;26.40;79.30
5870;DHT22;2961;47.702;9.410;2023-07-31T14:09:00;26.40;81.10
5870;DHT22;2961;47.702;9.410;2023-07-31T14:11:28;26.10;82.10
5870;DHT22;2961;47.702;9.410;2023-07-31T14:13:55;25.80;83.00
5870;DHT22;2961;47.702;9.410;2023-07-31T14:16:24;25.70;82.50
5870;DHT22;2961;47.702;9.410;2023-07-31T14:18:50;25.70;82.00
5870;DHT22;2961;47.702;9.410;2023-07-31T14:21:19;25.60;81.00
5870;DHT22;2961;47.702;9.410;2023-07-31T14:23:46;25.60;80.20
5870;DHT22;2961;47.702;9.410;2023-07-31T14:26:13;25.70;80.70
5870;DHT22;2961;47.702;9.410;2023-07-31T14:28:39;25.60;84.10
5870;DHT22;2961;47.702;9.410;2023-07-31T14:31:06;25.50;83.20
5870;DHT22;2961;47.702;9.410;2023-07-31T14:33:34;25.50;83.30
5870;DHT22;2961;47.702;9.410;2023-07-31T14:36:01;25.60;83.00
5870;DHT22;2961;47.702;9.410;2023-07-31T14:38:28;25.60;81.30
5870;DHT22;2961;47.702;9.410;2023-07-31T14:40:55;25.60;80.60
5870;DHT22;2961;47.702;9.410;2023-07-31T14:43:22;25.60;82.00
5870;DHT22;2961;47.702;9.410;2023-07-31T14:45:49;25.70;81.60
5870;DHT22;2961;47.702;9.410;2023-07-31T14:48:17;25.70;82.20
5870;DHT22;2961;47.702;9.410;2023-07-31T14:50:45;25.60;78.40
5870;DHT22;2961;47.702;9.410;2023-07-31T14:53:12;25.80;84.50
5870;DHT22;2961;47.702;9.410;2023-07-31T14:55:41;25.90;81.70
5870;DHT22;2961;47.702;9.410;2023-07-31T14:58:07;25.90;80.30
5870;DHT22;2961;47.702;9.410;2023-07-31T15:00:36;25.90;79.40
5870;DHT22;2961;47.702;9.410;2023-07-31T15:03:03;25.70;80.90
5870;DHT22;2961;47.702;9.410;2023-07-31T15:05:30;25.60;80.20
5870;DHT22;2961;47.702;9.410;2023-07-31T15:07:58;25.40;83.20
5870;DHT22;2961;47.702;9.410;2023-07-31T15:10:25;25.40;82.70
5870;DHT22;2961;47.702;9.410;2023-07-31T15:12:52;25.30;79.50
5870;DHT22;2961;47.702;9.410;2023-07-31T15:15:18;25.20;81.40
5870;DHT22;2961;47.702;9.410;2023-07-31T15:17:45;25.10;84.60
5870;DHT22;2961;47.702;9.410;2023-07-31T15:20:12;25.10;83.50
5870;DHT22;2961;47.702;9.410;2023-07-31T15:22:39;25.20;83.60
5870;DHT22;2961;47.702;9.410;2023-07-31T15:25:08;25.30;84.90
5870;DHT22;2961;47.702;9.410;2023-07-31T15:27:35;25.50;83.00
5870;DHT22;2961;47.702;9.410;2023-07-31T15:30:02;25.60;82.70
5870;DHT22;2961;47.702;9.410;2023-07-31T15:32:30;25.50;81.60
5870;DHT22;2961;47.702;9.410;2023-07-31T15:34:57;25.50;82.00
5870;DHT22;2961;47.702;9.410;2023-07-31T15:37:24;25.50;83.20
5870;DHT22;2961;47.702;9.410;2023-07-31T15:39:51;25.60;84.40
5870;DHT22;2961;47.702;9.410;2023-07-31T15:42:19;25.50;83.60
5870;DHT22;2961;47.702;9.410;2023-07-31T15:44:46;25.60;82.90
5870;DHT22;2961;47.702;9.410;2023-07-31T15:47:12;25.50;83.70
5870;DHT22;2961;47.702;9.410;2023-07-31T15:49:40;25.50;84.10
5870;DHT22;2961;47.702;9.410;2023-07-31T15:52:07;25.50;83.30
5870;DHT22;2961;47.702;9.410;2023-07-31T15:54:37;25.50;82.30
5870;DHT22;2961;47.702;9.410;2023-07-31T15:57:04;25.50;83.20
5870;DHT22;2961;47.702;9.410;2023-07-31T15:59:32;25.50;85.20
5870;DHT22;2961;47.702;9.410;2023-07-31T16:01:59;25.50;83.70
5870;DHT22;2961;47.702;9.410;2023-07-31T16:04:25;25.50;86.00
5870;DHT22;2961;47.702;9.410;2023-07-31T16:06:52;25.50;86.70
5870;DHT22;2961;47.702;9.410;2023-07-31T16:09:19;25.60;84.60
5870;DHT22;2961;47.702;9.410;2023-07-31T16:11:46;25.60;87.20
5870;DHT22;2961;47.702;9.410;2023-07-31T16:14:13;25.70;85.20